Time;durP1;ratioP1;P1;durP2;ratioP2;P2;SDS_P1;SDS_P2;PMS_P1;PMS_P2;Temp;Humidity;BMP_temperature;BMP_pressure;BME280_temperature;BME280_humidity;BME280_pressure;Samples;Min_cycle;Max_cycle;Signal;HPM_P1;HPM_P2
2023/05/15 00:00:09;;;;;;;37.53;31.77;;;;;;;;;;5055015;28;20175;-66
2023/05/15 00:02:36;;;;;;;37.37;32.47;;;;;;;;;;5036887;28;20185;-67
2023/05/15 00:05:03;;;;;;;39.07;32.13;;;;;;;;;;5055227;28;20175;-66
2023/05/15 00:07:29;;;;;;;38.27;32.93;;;;;;;;;;5054850;28;20201;-66
2023/05/15 00:09:55;;;;;;;41.03;33.03;;;;;;;;;;5055232;28;20554;-66
2023/05/15 00:12:21;;;;;;;41.23;33.20;;;;;;;;;;5054725;28;20185;-66
2023/05/15 00:14:47;;;;;;;39.63;33.10;;;;;;;;;;5054773;28;20206;-66
2023/05/15 00:17:13;;;;;;;39.83;32.70;;;;;;;;;;5054609;28;20206;-66
2023/05/15 00:19:39;;;;;;;42.20;33.60;;;;;;;;;;5036934;28;20214;-66
2023/05/15 00:22:05;;;;;;;45.77;34.57;;;;;;;;;;5036821;28;20265;-68
2023/05/15 00:24:31;;;;;;;41.57;34.33;;;;;;;;;;5054883;28;20207;-66
2023/05/15 00:26:58;;;;;;;43.37;34.63;;;;;;;;;;5054469;28;20209;-66
2023/05/15 00:29:24;;;;;;;43.83;34.53;;;;;;;;;;5036504;28;20179;-66
2023/05/15 00:31:50;;;;;;;42.03;34.20;;;;;;;;;;5054450;28;20224;-66
2023/05/15 00:34:16;;;;;;;43.80;33.80;;;;;;;;;;5036647;28;20281;-68
2023/05/15 00:36:43;;;;;;;39.20;32.70;;;;;;;;;;5054833;28;20201;-66
2023/05/15 00:39:09;;;;;;;45.57;34.10;;;;;;;;;;5054373;28;20260;-66
2023/05/15 00:41:35;;;;;;;39.00;33.47;;;;;;;;;;5036468;28;20228;-66
2023/05/15 00:44:01;;;;;;;42.37;33.10;;;;;;;;;;5054759;28;20616;-66
2023/05/15 00:46:28;;;;;;;39.67;33.50;;;;;;;;;;5054054;28;20185;-66
2023/05/15 00:48:55;;;;;;;41.03;33.20;;;;;;;;;;5054133;28;20186;-66
2023/05/15 00:51:21;;;;;;;45.73;34.37;;;;;;;;;;5054455;28;20194;-66
2023/05/15 00:53:47;;;;;;;41.70;33.20;;;;;;;;;;5054075;28;20664;-66
2023/05/15 00:56:13;;;;;;;36.67;32.40;;;;;;;;;;5053680;28;20640;-66
2023/05/15 00:58:41;;;;;;;42.93;32.13;;;;;;;;;;5053314;28;20198;-66
2023/05/15 01:01:06;;;;;;;38.93;31.23;;;;;;;;;;5053989;28;20351;-66
2023/05/15 01:03:32;;;;;;;40.27;32.63;;;;;;;;;;5053991;28;20202;-66
2023/05/15 01:05:58;;;;;;;39.50;31.27;;;;;;;;;;5053939;28;20548;-66
2023/05/15 01:08:37;;;;;;;40.77;31.73;;;;;;;;;;5053972;28;20198;-66
2023/05/15 01:11:05;;;;;;;40.13;32.17;;;;;;;;;;5035961;28;20262;-66
2023/05/15 01:13:31;;;;;;;42.57;33.03;;;;;;;;;;5054111;28;20182;-67
2023/05/15 01:15:57;;;;;;;40.30;32.63;;;;;;;;;;5053635;28;20328;-66
2023/05/15 01:18:30;;;;;;;40.47;32.47;;;;;;;;;;5053777;28;20694;-67
2023/05/15 01:20:56;;;;;;;43.27;32.90;;;;;;;;;;5054306;28;20594;-67
2023/05/15 01:23:45;;;;;;;35.83;31.53;;;;;;;;;;5035955;28;20209;-66
2023/05/15 01:26:18;;;;;;;41.27;31.87;;;;;;;;;;5044281;28;20187;-66
2023/05/15 01:28:48;;;;;;;39.97;33.53;;;;;;;;;;5036380;28;20190;-66
2023/05/15 01:31:15;;;;;;;40.70;32.77;;;;;;;;;;5054692;28;20208;-66
2023/05/15 01:33:44;;;;;;;43.67;33.17;;;;;;;;;;5054600;28;20178;-66
2023/05/15 01:36:13;;;;;;;41.87;33.03;;;;;;;;;;5054699;28;20236;-67
2023/05/15 01:38:42;;;;;;;40.37;33.43;;;;;;;;;;5053574;28;20221;-66
2023/05/15 01:41:17;;;;;;;39.77;32.93;;;;;;;;;;5054059;28;20178;-66
2023/05/15 01:43:44;;;;;;;42.67;32.00;;;;;;;;;;5035641;28;20202;-66
2023/05/15 01:46:14;;;;;;;44.87;32.97;;;;;;;;;;5053434;28;20182;-66
2023/05/15 01:48:41;;;;;;;41.57;34.07;;;;;;;;;;5036199;28;20210;-66
2023/05/15 01:51:07;;;;;;;46.20;34.10;;;;;;;;;;5054401;28;20178;-67
2023/05/15 01:53:34;;;;;;;43.43;33.33;;;;;;;;;;5035927;28;20583;-68
2023/05/15 01:56:00;;;;;;;38.20;33.47;;;;;;;;;;5035575;28;20202;-66
2023/05/15 01:58:27;;;;;;;45.87;34.73;;;;;;;;;;5053115;28;20209;-66
2023/05/15 02:00:53;;;;;;;42.73;32.53;;;;;;;;;;5053724;28;20178;-66
2023/05/15 02:03:19;;;;;;;37.33;33.30;;;;;;;;;;5035246;28;20738;-65
2023/05/15 02:05:46;;;;;;;40.23;33.97;;;;;;;;;;5053609;28;20706;-66
2023/05/15 02:08:12;;;;;;;41.77;33.70;;;;;;;;;;5053737;28;20190;-66
2023/05/15 02:10:39;;;;;;;40.00;33.77;;;;;;;;;;5039391;28;20595;-66
2023/05/15 02:13:06;;;;;;;41.43;33.47;;;;;;;;;;5057438;28;20183;-66
2023/05/15 02:15:32;;;;;;;39.13;34.43;;;;;;;;;;5057897;28;20186;-66
2023/05/15 02:17:58;;;;;;;40.43;32.93;;;;;;;;;;5058022;28;20209;-66
2023/05/15 02:20:24;;;;;;;36.20;32.40;;;;;;;;;;5057897;28;20577;-67
2023/05/15 02:22:50;;;;;;;39.03;32.93;;;;;;;;;;5057113;28;20197;-66
2023/05/15 02:25:16;;;;;;;39.23;31.63;;;;;;;;;;5039487;28;20181;-67
2023/05/15 02:27:46;;;;;;;37.70;31.90;;;;;;;;;;5039030;28;20198;-67
2023/05/15 02:30:18;;;;;;;37.30;31.00;;;;;;;;;;5057155;28;20179;-67
2023/05/15 02:32:55;;;;;;;35.30;31.37;;;;;;;;;;5056654;28;20179;-67
2023/05/15 02:35:26;;;;;;;41.10;32.87;;;;;;;;;;5057191;28;20162;-67
2023/05/15 02:37:54;;;;;;;34.70;30.50;;;;;;;;;;5056712;28;20283;-67
2023/05/15 02:40:23;;;;;;;35.57;29.27;;;;;;;;;;5056838;28;20654;-67
2023/05/15 02:42:49;;;;;;;39.03;29.73;;;;;;;;;;5056883;28;20257;-67
2023/05/15 02:45:15;;;;;;;33.63;29.70;;;;;;;;;;5056960;28;20257;-66
2023/05/15 02:47:41;;;;;;;33.03;29.60;;;;;;;;;;5056475;28;20195;-66
2023/05/15 02:50:08;;;;;;;33.47;29.47;;;;;;;;;;5056959;28;20652;-67
2023/05/15 02:52:34;;;;;;;37.80;30.03;;;;;;;;;;5056485;28;20175;-66
2023/05/15 02:55:00;;;;;;;37.10;31.20;;;;;;;;;;5056469;28;20205;-67
2023/05/15 02:57:26;;;;;;;38.47;31.43;;;;;;;;;;5056403;28;20216;-67
2023/05/15 02:59:53;;;;;;;39.27;31.40;;;;;;;;;;5056438;28;20183;-67
2023/05/15 03:02:19;;;;;;;41.67;32.50;;;;;;;;;;5038258;28;20183;-67
2023/05/15 03:04:45;;;;;;;36.47;31.83;;;;;;;;;;5038319;28;20252;-67
2023/05/15 03:07:13;;;;;;;34.47;30.60;;;;;;;;;;5056352;28;20614;-67
2023/05/15 03:09:39;;;;;;;36.03;30.33;;;;;;;;;;5056827;28;20171;-67
2023/05/15 03:12:05;;;;;;;38.17;31.90;;;;;;;;;;5056432;28;20182;-67
2023/05/15 03:14:31;;;;;;;37.20;31.30;;;;;;;;;;5038031;28;20660;-67
2023/05/15 03:16:57;;;;;;;37.80;31.70;;;;;;;;;;5056086;28;20225;-67
2023/05/15 03:19:23;;;;;;;43.40;32.73;;;;;;;;;;5056401;28;20636;-67
2023/05/15 03:21:49;;;;;;;41.50;33.80;;;;;;;;;;5055323;28;20648;-67
2023/05/15 03:24:15;;;;;;;43.80;33.13;;;;;;;;;;5038167;28;20751;-67
2023/05/15 03:26:41;;;;;;;36.83;32.30;;;;;;;;;;5056023;28;20282;-67
2023/05/15 03:29:07;;;;;;;37.53;32.17;;;;;;;;;;5055796;28;20182;-67
2023/05/15 03:31:33;;;;;;;40.50;33.40;;;;;;;;;;5056039;28;20593;-67
2023/05/15 03:33:59;;;;;;;37.87;31.30;;;;;;;;;;5055969;28;20555;-67
2023/05/15 03:36:25;;;;;;;40.60;32.90;;;;;;;;;;5055577;28;20232;-67
2023/05/15 03:38:51;;;;;;;41.83;32.50;;;;;;;;;;5056168;28;20179;-66
2023/05/15 03:41:17;;;;;;;40.33;33.23;;;;;;;;;;5056055;28;20178;-67
2023/05/15 03:43:43;;;;;;;35.77;31.47;;;;;;;;;;5055569;28;20206;-67
2023/05/15 03:46:09;;;;;;;43.07;34.67;;;;;;;;;;5055415;28;20243;-67
2023/05/15 03:48:35;;;;;;;40.87;33.67;;;;;;;;;;5037484;28;20213;-68
2023/05/15 03:51:01;;;;;;;47.70;36.57;;;;;;;;;;5055376;28;20228;-67
2023/05/15 03:53:27;;;;;;;48.20;35.27;;;;;;;;;;5037377;28;20568;-67
2023/05/15 03:55:53;;;;;;;47.43;36.23;;;;;;;;;;5055469;28;20620;-67
2023/05/15 03:58:19;;;;;;;55.47;38.33;;;;;;;;;;5055148;28;20272;-67
2023/05/15 04:00:45;;;;;;;58.20;41.77;;;;;;;;;;5055365;28;20640;-67
2023/05/15 04:03:11;;;;;;;59.37;44.20;;;;;;;;;;5055040;28;20256;-68
2023/05/15 04:05:37;;;;;;;55.10;41.50;;;;;;;;;;5055290;28;20183;-67
2023/05/15 04:08:03;;;;;;;61.83;45.63;;;;;;;;;;5037029;28;20198;-68
2023/05/15 04:10:30;;;;;;;64.70;44.10;;;;;;;;;;5055129;28;20181;-68
2023/05/15 04:12:56;;;;;;;60.50;45.33;;;;;;;;;;5037158;28;20206;-67
2023/05/15 04:15:24;;;;;;;54.47;43.03;;;;;;;;;;5054859;28;20214;-67
2023/05/15 04:17:51;;;;;;;59.47;43.40;;;;;;;;;;5054772;28;20195;-67
2023/05/15 04:20:18;;;;;;;58.50;43.60;;;;;;;;;;5036732;28;20190;-67
2023/05/15 04:22:45;;;;;;;55.03;41.83;;;;;;;;;;5054753;28;20178;-67
2023/05/15 04:25:12;;;;;;;56.33;42.97;;;;;;;;;;5036869;28;20186;-67
2023/05/15 04:27:38;;;;;;;58.60;42.53;;;;;;;;;;5054419;28;20565;-67
2023/05/15 04:30:05;;;;;;;51.67;43.30;;;;;;;;;;5054678;28;20570;-67
2023/05/15 04:32:34;;;;;;;57.50;43.53;;;;;;;;;;5036569;28;20174;-67
2023/05/15 04:35:01;;;;;;;59.40;43.97;;;;;;;;;;5036587;28;20651;-67
2023/05/15 04:37:27;;;;;;;58.57;43.20;;;;;;;;;;5054349;28;20621;-66
2023/05/15 04:39:53;;;;;;;57.47;43.23;;;;;;;;;;5054316;28;20178;-67
2023/05/15 04:42:19;;;;;;;58.77;44.97;;;;;;;;;;5054818;28;20175;-68
2023/05/15 04:44:45;;;;;;;64.73;44.50;;;;;;;;;;5054433;28;20289;-67
2023/05/15 04:47:11;;;;;;;52.83;40.00;;;;;;;;;;5036470;28;20231;-67
2023/05/15 04:49:37;;;;;;;49.40;37.87;;;;;;;;;;5054665;28;20636;-67
2023/05/15 04:52:03;;;;;;;44.70;34.50;;;;;;;;;;5054106;28;20178;-67
2023/05/15 04:54:29;;;;;;;45.57;35.20;;;;;;;;;;5036222;28;20217;-67
2023/05/15 04:56:55;;;;;;;45.83;31.40;;;;;;;;;;5035752;28;20210;-67
2023/05/15 04:59:21;;;;;;;36.57;30.77;;;;;;;;;;5053925;28;20604;-67
2023/05/15 05:01:47;;;;;;;36.07;29.93;;;;;;;;;;5058343;22;20283;-69
2023/05/15 05:04:13;;;;;;;37.13;29.40;;;;;;;;;;5053767;28;20194;-70
2023/05/15 05:06:39;;;;;;;33.77;30.13;;;;;;;;;;5053807;28;20175;-70
2023/05/15 05:09:05;;;;;;;32.87;27.93;;;;;;;;;;5037023;28;20175;-69
2023/05/15 05:11:31;;;;;;;34.60;29.70;;;;;;;;;;5054368;28;20198;-70
2023/05/15 05:13:57;;;;;;;38.60;27.10;;;;;;;;;;5035778;28;20214;-70
2023/05/15 05:16:23;;;;;;;29.53;26.27;;;;;;;;;;5035746;28;20244;-70
2023/05/15 05:18:49;;;;;;;33.73;27.43;;;;;;;;;;5035590;28;20190;-70
2023/05/15 05:21:15;;;;;;;34.73;27.10;;;;;;;;;;5053398;28;20194;-70
2023/05/15 05:23:41;;;;;;;31.87;26.57;;;;;;;;;;5053534;28;20686;-69
2023/05/15 05:26:07;;;;;;;31.30;26.37;;;;;;;;;;5053507;28;20174;-70
2023/05/15 05:28:33;;;;;;;30.53;26.37;;;;;;;;;;5053358;28;20254;-70
2023/05/15 05:30:59;;;;;;;32.67;26.97;;;;;;;;;;5053169;28;20202;-69
2023/05/15 05:33:25;;;;;;;33.43;26.33;;;;;;;;;;5053460;28;20186;-69
2023/05/15 05:35:51;;;;;;;28.93;24.87;;;;;;;;;;5035131;28;20232;-69
2023/05/15 05:38:17;;;;;;;28.00;25.00;;;;;;;;;;5053297;28;20190;-69
2023/05/15 05:40:43;;;;;;;29.73;25.10;;;;;;;;;;5053441;28;20206;-69
2023/05/15 05:43:09;;;;;;;30.57;25.27;;;;;;;;;;5052517;28;20194;-69
2023/05/15 05:45:35;;;;;;;30.60;24.07;;;;;;;;;;5053844;28;20186;-69
2023/05/15 05:48:01;;;;;;;27.20;23.37;;;;;;;;;;5035941;28;20557;-69
2023/05/15 05:50:27;;;;;;;29.77;23.70;;;;;;;;;;5054270;28;20572;-70
2023/05/15 05:52:53;;;;;;;30.53;24.07;;;;;;;;;;5036338;28;20181;-70
2023/05/15 05:55:20;;;;;;;27.93;23.57;;;;;;;;;;5053410;28;20249;-70
2023/05/15 05:57:46;;;;;;;31.23;22.50;;;;;;;;;;5053399;28;20181;-69
2023/05/15 06:00:13;;;;;;;25.40;22.67;;;;;;;;;;5036373;28;20257;-70
2023/05/15 06:02:39;;;;;;;29.90;23.90;;;;;;;;;;5053244;28;20636;-70
2023/05/15 06:05:06;;;;;;;29.63;23.70;;;;;;;;;;5053260;28;20202;-70
2023/05/15 06:07:33;;;;;;;26.23;23.27;;;;;;;;;;5052814;28;20178;-70
2023/05/15 06:09:59;;;;;;;25.80;23.07;;;;;;;;;;5053259;28;20170;-70
2023/05/15 06:12:26;;;;;;;27.53;23.40;;;;;;;;;;5052609;28;20205;-70
2023/05/15 06:14:52;;;;;;;25.67;22.60;;;;;;;;;;5052826;28;20186;-70
2023/05/15 06:17:18;;;;;;;25.80;22.80;;;;;;;;;;5052762;28;20174;-70
2023/05/15 06:19:44;;;;;;;24.60;21.87;;;;;;;;;;5052749;28;20241;-70
2023/05/15 06:22:10;;;;;;;23.03;20.80;;;;;;;;;;5034617;28;20202;-69
2023/05/15 06:24:36;;;;;;;24.97;22.37;;;;;;;;;;5053017;28;20198;-70
2023/05/15 06:27:02;;;;;;;25.00;21.77;;;;;;;;;;5034721;28;20170;-70
2023/05/15 06:29:28;;;;;;;24.73;22.23;;;;;;;;;;5052540;28;20254;-70
2023/05/15 06:31:54;;;;;;;28.23;22.77;;;;;;;;;;5052578;28;20202;-70
2023/05/15 06:34:20;;;;;;;25.43;22.87;;;;;;;;;;5034782;28;20214;-70
2023/05/15 06:36:46;;;;;;;28.03;22.93;;;;;;;;;;5052895;28;20702;-69
2023/05/15 06:39:12;;;;;;;29.53;23.27;;;;;;;;;;5034741;28;20201;-70
2023/05/15 06:41:38;;;;;;;26.20;23.30;;;;;;;;;;5052624;28;20202;-70
2023/05/15 06:44:04;;;;;;;26.20;23.37;;;;;;;;;;5034618;28;20688;-71
2023/05/15 06:46:30;;;;;;;28.73;23.63;;;;;;;;;;5034640;28;20174;-69
2023/05/15 06:48:56;;;;;;;28.93;23.23;;;;;;;;;;5052798;28;20179;-70
2023/05/15 06:51:22;;;;;;;27.90;23.90;;;;;;;;;;5052727;28;20195;-70
2023/05/15 06:53:48;;;;;;;28.50;25.33;;;;;;;;;;5053882;28;20175;-70
2023/05/15 06:56:14;;;;;;;28.40;24.40;;;;;;;;;;5054581;28;20269;-69
2023/05/15 06:58:40;;;;;;;28.77;25.03;;;;;;;;;;5038369;28;20186;-70
2023/05/15 07:01:07;;;;;;;32.20;25.83;;;;;;;;;;5055678;28;20216;-70
2023/05/15 07:03:33;;;;;;;31.93;25.23;;;;;;;;;;5037864;28;20202;-69
2023/05/15 07:05:59;;;;;;;32.47;25.67;;;;;;;;;;5056867;28;20171;-70
2023/05/15 07:08:25;;;;;;;32.43;26.37;;;;;;;;;;5037955;28;20183;-70
2023/05/15 07:10:51;;;;;;;31.20;25.97;;;;;;;;;;5056078;28;20253;-70
2023/05/15 07:13:17;;;;;;;29.70;24.20;;;;;;;;;;5055888;28;20178;-70
2023/05/15 07:15:43;;;;;;;27.37;24.53;;;;;;;;;;5055940;28;20582;-70
2023/05/15 07:18:09;;;;;;;32.10;25.03;;;;;;;;;;5055889;28;20312;-70
2023/05/15 07:20:35;;;;;;;27.90;24.73;;;;;;;;;;5037743;28;20202;-70
2023/05/15 07:23:01;;;;;;;30.83;25.07;;;;;;;;;;5055468;28;20221;-70
2023/05/15 07:25:29;;;;;;;26.77;23.10;;;;;;;;;;5055438;28;20178;-70
2023/05/15 07:27:55;;;;;;;29.83;22.87;;;;;;;;;;5055354;28;20656;-70
2023/05/15 07:30:21;;;;;;;31.80;22.57;;;;;;;;;;5055487;28;20174;-70
2023/05/15 07:32:47;;;;;;;24.73;22.00;;;;;;;;;;5037532;28;20183;-69
2023/05/15 07:35:13;;;;;;;26.70;21.30;;;;;;;;;;5055289;28;20232;-70
2023/05/15 07:37:39;;;;;;;23.83;21.30;;;;;;;;;;5037339;28;20556;-70
2023/05/15 07:40:06;;;;;;;23.50;21.00;;;;;;;;;;5037171;28;20289;-69
2023/05/15 07:42:32;;;;;;;23.53;19.77;;;;;;;;;;5055766;28;20178;-69
2023/05/15 07:44:58;;;;;;;22.20;19.17;;;;;;;;;;5041922;28;20581;-69
2023/05/15 07:47:24;;;;;;;24.23;21.77;;;;;;;;;;5042446;28;20770;-69
2023/05/15 07:49:50;;;;;;;23.87;20.17;;;;;;;;;;5040682;28;20175;-70
2023/05/15 07:52:16;;;;;;;25.23;21.43;;;;;;;;;;5037635;28;20684;-69
2023/05/15 07:54:42;;;;;;;23.27;20.77;;;;;;;;;;5055493;28;20174;-70
2023/05/15 07:57:09;;;;;;;23.33;20.57;;;;;;;;;;5055114;28;20648;-70
2023/05/15 07:59:35;;;;;;;24.80;20.30;;;;;;;;;;5037014;28;20218;-70
2023/05/15 08:02:01;;;;;;;22.67;20.23;;;;;;;;;;5054555;28;20320;-69
2023/05/15 08:04:27;;;;;;;24.00;21.40;;;;;;;;;;5036695;28;20255;-69
2023/05/15 08:06:53;;;;;;;24.70;21.57;;;;;;;;;;5054354;28;20228;-69
2023/05/15 08:09:19;;;;;;;24.07;20.60;;;;;;;;;;5036818;28;20174;-69
2023/05/15 08:11:45;;;;;;;24.73;20.47;;;;;;;;;;5020465;28;20574;-69
2023/05/15 08:14:11;;;;;;;26.33;21.50;;;;;;;;;;5036728;28;20179;-69
2023/05/15 08:16:37;;;;;;;22.33;19.60;;;;;;;;;;5054525;28;20601;-70
2023/05/15 08:19:05;;;;;;;22.57;18.80;;;;;;;;;;5036700;28;20182;-69
2023/05/15 08:21:31;;;;;;;21.87;19.47;;;;;;;;;;5054380;28;20224;-70
2023/05/15 08:23:58;;;;;;;25.33;20.47;;;;;;;;;;5036440;28;20813;-69
2023/05/15 08:26:24;;;;;;;23.40;20.90;;;;;;;;;;5054257;28;20667;-69
2023/05/15 08:28:50;;;;;;;23.90;21.30;;;;;;;;;;5054343;28;20178;-70
2023/05/15 08:31:16;;;;;;;28.60;21.00;;;;;;;;;;5054185;28;20194;-69
2023/05/15 08:33:42;;;;;;;24.63;20.67;;;;;;;;;;5036509;28;20216;-70
2023/05/15 08:36:08;;;;;;;24.70;20.90;;;;;;;;;;5054506;28;20197;-69
2023/05/15 08:38:35;;;;;;;26.33;20.07;;;;;;;;;;5054969;28;20683;-69
2023/05/15 08:41:05;;;;;;;30.00;20.67;;;;;;;;;;5036051;28;20288;-70
2023/05/15 08:43:34;;;;;;;26.57;19.77;;;;;;;;;;5036062;28;20205;-69
2023/05/15 08:46:00;;;;;;;19.83;17.80;;;;;;;;;;5035935;28;20190;-70
2023/05/15 08:48:28;;;;;;;22.27;19.03;;;;;;;;;;5054202;28;20181;-69
2023/05/15 08:50:56;;;;;;;20.27;18.07;;;;;;;;;;5053936;28;20242;-70
2023/05/15 08:53:23;;;;;;;23.30;18.90;;;;;;;;;;5054047;28;20224;-69
2023/05/15 08:55:49;;;;;;;21.00;17.03;;;;;;;;;;5035812;28;20190;-69
2023/05/15 08:58:20;;;;;;;20.67;17.67;;;;;;;;;;5053821;28;20277;-69
2023/05/15 09:00:47;;;;;;;19.80;16.67;;;;;;;;;;5053482;28;20706;-70
2023/05/15 09:03:14;;;;;;;19.03;16.83;;;;;;;;;;5035818;28;20174;-69
2023/05/15 09:05:40;;;;;;;19.67;15.40;;;;;;;;;;5053738;28;20246;-70
2023/05/15 09:08:07;;;;;;;18.53;15.47;;;;;;;;;;5053556;28;20659;-69
2023/05/15 09:10:35;;;;;;;19.00;17.00;;;;;;;;;;5035723;28;20206;-70
2023/05/15 09:13:01;;;;;;;21.03;16.40;;;;;;;;;;5035570;28;20640;-69
2023/05/15 09:15:27;;;;;;;18.80;16.40;;;;;;;;;;5053633;28;20185;-69
2023/05/15 09:17:53;;;;;;;19.20;16.27;;;;;;;;;;5052732;28;20179;-69
2023/05/15 09:20:27;;;;;;;20.43;16.17;;;;;;;;;;5053539;28;20170;-70
2023/05/15 09:22:53;;;;;;;17.63;15.37;;;;;;;;;;5053372;28;20262;-71
2023/05/15 09:25:32;;;;;;;17.03;15.00;;;;;;;;;;5053542;28;20206;-69
2023/05/15 09:27:58;;;;;;;19.43;16.40;;;;;;;;;;5035456;28;20170;-69
2023/05/15 09:30:26;;;;;;;21.47;16.63;;;;;;;;;;5053954;28;20250;-68
2023/05/15 09:32:53;;;;;;;19.47;16.03;;;;;;;;;;5053897;28;20171;-68
2023/05/15 09:35:32;;;;;;;20.70;16.20;;;;;;;;;;5053169;28;20170;-68
2023/05/15 09:37:59;;;;;;;17.77;14.60;;;;;;;;;;5053028;28;20178;-68
2023/05/15 09:40:27;;;;;;;18.43;15.60;;;;;;;;;;5052922;28;20198;-69
2023/05/15 09:42:53;;;;;;;17.47;15.43;;;;;;;;;;5035514;28;20641;-68
2023/05/15 09:45:19;;;;;;;19.63;15.60;;;;;;;;;;5035086;28;20214;-68
2023/05/15 09:47:46;;;;;;;18.23;16.43;;;;;;;;;;5035118;28;20662;-69
2023/05/15 09:50:12;;;;;;;18.60;16.20;;;;;;;;;;5053085;28;20209;-69
2023/05/15 09:52:38;;;;;;;17.33;15.53;;;;;;;;;;5052874;28;20202;-68
2023/05/15 09:55:05;;;;;;;15.00;13.43;;;;;;;;;;5053325;28;20272;-68
2023/05/15 09:57:31;;;;;;;21.37;14.33;;;;;;;;;;5034967;28;20185;-69
2023/05/15 10:00:09;;;;;;;17.03;14.63;;;;;;;;;;5034943;28;20183;-69
2023/05/15 10:02:36;;;;;;;17.17;14.20;;;;;;;;;;5035015;28;20182;-69
2023/05/15 10:05:03;;;;;;;15.87;14.33;;;;;;;;;;5034947;28;20214;-69
2023/05/15 10:07:34;;;;;;;17.10;13.30;;;;;;;;;;5052755;28;20637;-68
2023/05/15 10:10:01;;;;;;;19.13;14.90;;;;;;;;;;5034930;28;20177;-69
2023/05/15 10:12:28;;;;;;;17.23;14.23;;;;;;;;;;5034809;28;20179;-69
2023/05/15 10:14:57;;;;;;;16.10;13.03;;;;;;;;;;5052688;28;20179;-68
2023/05/15 10:17:23;;;;;;;13.17;11.90;;;;;;;;;;5034970;28;20187;-69
2023/05/15 10:19:50;;;;;;;15.83;13.50;;;;;;;;;;5053239;28;20544;-69
2023/05/15 10:22:19;;;;;;;14.17;12.53;;;;;;;;;;5052648;28;20198;-69
2023/05/15 10:24:46;;;;;;;15.77;12.63;;;;;;;;;;5035950;28;20255;-68
2023/05/15 10:27:13;;;;;;;14.63;12.53;;;;;;;;;;5052929;28;20178;-69
2023/05/15 10:29:39;;;;;;;15.27;13.77;;;;;;;;;;5036227;28;20189;-68
2023/05/15 10:32:05;;;;;;;15.40;13.77;;;;;;;;;;5056789;28;20204;-69
2023/05/15 10:34:31;;;;;;;13.87;12.47;;;;;;;;;;5056814;28;20179;-69
2023/05/15 10:36:58;;;;;;;17.90;13.30;;;;;;;;;;5038508;28;20193;-69
2023/05/15 10:39:26;;;;;;;16.50;11.77;;;;;;;;;;5056620;28;20269;-69
2023/05/15 10:41:53;;;;;;;12.63;11.33;;;;;;;;;;5038401;28;20237;-69
2023/05/15 10:44:20;;;;;;;19.33;12.60;;;;;;;;;;5056412;28;20256;-69
2023/05/15 10:46:46;;;;;;;15.30;13.80;;;;;;;;;;5038675;28;20221;-69
2023/05/15 10:49:12;;;;;;;15.13;13.50;;;;;;;;;;5056808;28;20181;-69
2023/05/15 10:51:39;;;;;;;17.47;13.10;;;;;;;;;;5039612;28;20197;-69
2023/05/15 10:54:05;;;;;;;14.00;11.33;;;;;;;;;;5058825;28;20202;-69
2023/05/15 10:56:32;;;;;;;11.90;9.57;;;;;;;;;;5059064;28;20182;-69
2023/05/15 10:58:58;;;;;;;12.10;10.77;;;;;;;;;;5057379;28;20186;-69
2023/05/15 11:01:25;;;;;;;12.20;11.07;;;;;;;;;;5079098;22;20230;-66
2023/05/15 11:03:51;;;;;;;15.00;10.60;;;;;;;;;;5038108;28;20740;-66
2023/05/15 11:06:29;;;;;;;13.00;11.27;;;;;;;;;;5038581;28;20177;-65
2023/05/15 11:09:15;;;;;;;12.27;10.57;;;;;;;;;;5056535;28;20163;-65
2023/05/15 11:12:00;;;;;;;13.23;10.27;;;;;;;;;;5056012;28;20199;-66
2023/05/15 11:14:27;;;;;;;12.30;10.40;;;;;;;;;;5038120;28;20178;-67
2023/05/15 11:16:53;;;;;;;15.07;13.40;;;;;;;;;;5038243;28;20272;-69
2023/05/15 11:19:25;;;;;;;17.77;15.30;;;;;;;;;;5055857;28;20171;-67
2023/05/15 11:22:04;;;;;;;18.40;16.50;;;;;;;;;;5055775;28;20604;-66
2023/05/15 11:24:31;;;;;;;18.33;16.47;;;;;;;;;;5055947;28;20690;-68
2023/05/15 11:26:59;;;;;;;17.47;15.77;;;;;;;;;;5055629;28;20178;-67
2023/05/15 11:29:25;;;;;;;19.07;16.97;;;;;;;;;;5037863;28;20556;-69
2023/05/15 11:31:51;;;;;;;17.63;15.57;;;;;;;;;;5055611;28;20197;-69
2023/05/15 11:34:29;;;;;;;15.47;13.93;;;;;;;;;;5055686;28;20174;-67
2023/05/15 11:36:55;;;;;;;15.90;13.90;;;;;;;;;;5037765;28;20188;-68
2023/05/15 11:39:23;;;;;;;14.87;11.97;;;;;;;;;;5037529;28;20178;-68
2023/05/15 11:41:49;;;;;;;14.30;10.87;;;;;;;;;;5054872;28;20226;-68
2023/05/15 11:44:19;;;;;;;11.40;9.73;;;;;;;;;;5055308;28;20246;-67
2023/05/15 11:46:46;;;;;;;11.47;10.37;;;;;;;;;;5037379;28;20182;-67
2023/05/15 11:49:14;;;;;;;10.40;9.40;;;;;;;;;;5055346;28;20182;-68
2023/05/15 11:51:42;;;;;;;12.50;9.40;;;;;;;;;;5037331;28;20228;-68
2023/05/15 11:54:13;;;;;;;12.73;10.33;;;;;;;;;;5055711;28;20186;-68
2023/05/15 11:56:43;;;;;;;12.23;9.67;;;;;;;;;;5055769;28;20668;-71
2023/05/15 11:59:09;;;;;;;13.07;9.93;;;;;;;;;;5037350;28;20205;-64
2023/05/15 12:01:39;;;;;;;9.57;7.53;;;;;;;;;;5055139;28;20331;-66
2023/05/15 12:04:11;;;;;;;9.03;7.77;;;;;;;;;;5055030;28;20241;-67
2023/05/15 12:06:37;;;;;;;9.20;8.10;;;;;;;;;;5055004;28;20163;-67
2023/05/15 12:09:03;;;;;;;10.00;8.93;;;;;;;;;;5037166;28;20265;-67
2023/05/15 12:11:30;;;;;;;11.53;10.33;;;;;;;;;;5055043;28;20340;-68
2023/05/15 12:13:56;;;;;;;11.10;9.90;;;;;;;;;;5054851;28;20179;-68
2023/05/15 12:16:25;;;;;;;11.77;10.23;;;;;;;;;;5036879;28;20667;-68
2023/05/15 12:18:51;;;;;;;17.87;10.30;;;;;;;;;;5054602;28;20209;-67
2023/05/15 12:21:17;;;;;;;13.67;12.27;;;;;;;;;;5055033;28;20222;-68
2023/05/15 12:23:54;;;;;;;15.50;13.90;;;;;;;;;;5037144;28;20210;-67
2023/05/15 12:26:21;;;;;;;16.87;14.67;;;;;;;;;;5055356;28;20189;-68
2023/05/15 12:28:48;;;;;;;18.40;16.20;;;;;;;;;;5036717;28;20186;-68
2023/05/15 12:31:14;;;;;;;20.60;16.63;;;;;;;;;;5036795;28;20202;-67
2023/05/15 12:33:40;;;;;;;22.23;18.73;;;;;;;;;;5056000;28;20182;-67
2023/05/15 12:36:06;;;;;;;19.63;17.77;;;;;;;;;;5054961;28;20232;-68
2023/05/15 12:38:33;;;;;;;19.17;16.90;;;;;;;;;;5036634;28;20182;-67
2023/05/15 12:41:00;;;;;;;20.60;17.83;;;;;;;;;;5036513;28;20182;-68
2023/05/15 12:43:26;;;;;;;42.17;37.97;;;;;;;;;;5054639;28;20240;-68
2023/05/15 12:45:52;;;;;;;17.27;15.47;;;;;;;;;;5036651;28;20178;-67
2023/05/15 12:48:18;;;;;;;16.13;14.53;;;;;;;;;;5036429;28;20277;-68
2023/05/15 12:50:45;;;;;;;14.53;12.97;;;;;;;;;;5054183;28;20206;-68
2023/05/15 12:53:13;;;;;;;15.10;13.57;;;;;;;;;;5035328;28;20170;-68
2023/05/15 12:55:39;;;;;;;14.80;13.20;;;;;;;;;;5054742;28;20170;-68
2023/05/15 12:58:08;;;;;;;16.33;14.40;;;;;;;;;;5036298;28;20770;-68
2023/05/15 13:00:35;;;;;;;19.43;17.43;;;;;;;;;;5054742;28;20223;-69
2023/05/15 13:03:02;;;;;;;20.93;18.73;;;;;;;;;;5053817;28;20289;-68
2023/05/15 13:05:30;;;;;;;19.77;17.87;;;;;;;;;;5054007;28;20205;-68
2023/05/15 13:07:58;;;;;;;22.53;19.67;;;;;;;;;;5053976;28;20544;-68
2023/05/15 13:10:24;;;;;;;21.03;18.73;;;;;;;;;;5054035;28;20182;-68
2023/05/15 13:12:51;;;;;;;19.37;17.50;;;;;;;;;;5053833;28;20269;-68
2023/05/15 13:15:37;;;;;;;19.90;17.27;;;;;;;;;;5036362;28;20186;-69
2023/05/15 13:18:06;;;;;;;20.67;18.47;;;;;;;;;;5054509;28;20167;-68
2023/05/15 13:20:37;;;;;;;19.13;17.23;;;;;;;;;;5036284;28;20186;-68
2023/05/15 13:23:03;;;;;;;18.63;16.70;;;;;;;;;;5036215;28;20210;-68
2023/05/15 13:25:29;;;;;;;22.13;16.90;;;;;;;;;;5053831;28;20253;-68
2023/05/15 13:27:57;;;;;;;17.43;15.73;;;;;;;;;;5053518;28;20319;-70
2023/05/15 13:30:23;;;;;;;18.50;16.60;;;;;;;;;;5035755;28;20201;-68
2023/05/15 13:32:49;;;;;;;18.37;16.60;;;;;;;;;;5035616;28;20583;-68
2023/05/15 13:35:15;;;;;;;17.63;15.93;;;;;;;;;;5034513;28;20400;-69
2023/05/15 13:37:42;;;;;;;25.20;17.20;;;;;;;;;;5035518;28;20210;-68
2023/05/15 13:40:08;;;;;;;16.17;12.30;;;;;;;;;;5053326;28;20260;-69
2023/05/15 13:42:35;;;;;;;12.10;10.50;;;;;;;;;;5035363;28;20234;-68
2023/05/15 13:45:01;;;;;;;10.03;8.83;;;;;;;;;;5035441;28;20297;-69
2023/05/15 13:47:27;;;;;;;9.83;8.93;;;;;;;;;;5053303;28;20179;-68
2023/05/15 13:49:53;;;;;;;14.73;13.17;;;;;;;;;;5053336;28;20185;-68
2023/05/15 13:52:19;;;;;;;13.27;12.00;;;;;;;;;;5052098;28;20387;-68
2023/05/15 13:54:44;;;;;;;13.37;12.10;;;;;;;;;;5035473;28;20189;-69
2023/05/15 13:57:10;;;;;;;13.20;11.67;;;;;;;;;;5034162;28;20445;-69
2023/05/15 13:59:36;;;;;;;17.93;15.83;;;;;;;;;;5052038;28;20973;-69
2023/05/15 14:02:02;;;;;;;17.40;15.47;;;;;;;;;;5035129;28;20260;-70
2023/05/15 14:04:28;;;;;;;16.87;15.27;;;;;;;;;;5054348;28;20237;-68
2023/05/15 14:06:55;;;;;;;;;;;;;;;;;;5057836;28;20032;-69
2023/05/15 14:09:21;;;;;;;;;;;;;;;;;;5057683;28;20476;-69
2023/05/15 14:11:46;;;;;;;19.37;17.47;;;;;;;;;;5039107;28;20189;-68
2023/05/15 14:14:12;;;;;;;21.10;19.07;;;;;;;;;;5039377;28;20540;-69
2023/05/15 14:16:38;;;;;;;22.43;19.70;;;;;;;;;;5057554;28;20570;-68